Time;durP1;ratioP1;P1;durP2;ratioP2;P2;SDS_P1;SDS_P2;PMS_P1;PMS_P2;Temp;Humidity;BMP_temperature;BMP_pressure;BME280_temperature;BME280_humidity;BME280_pressure;Samples;Min_cycle;Max_cycle;Signal;HPM_P1;HPM_P2
2024/01/18 00:00:10;;;;;;;38.38;19.85;;;;;;;4.18;68.48;99343.09;4955425;29;20179;-25
2024/01/18 00:02:35;;;;;;;37.90;17.92;;;;;;;3.95;69.02;99325.41;4955221;29;20566;-25
2024/01/18 00:05:01;;;;;;;34.78;17.42;;;;;;;3.80;69.66;99327.94;4955142;29;20027;-25
2024/01/18 00:07:26;;;;;;;35.90;18.17;;;;;;;3.97;69.20;99325.25;4955238;29;20031;-25
2024/01/18 00:09:51;;;;;;;35.42;18.05;;;;;;;4.10;68.81;99333.41;4954612;29;20455;-26
2024/01/18 00:12:17;;;;;;;34.20;17.70;;;;;;;3.91;69.23;99335.47;4955062;29;20031;-26
2024/01/18 00:14:42;;;;;;;35.55;18.20;;;;;;;4.22;68.21;99332.03;4955094;29;20031;-26
2024/01/18 00:17:08;;;;;;;34.47;18.30;;;;;;;4.37;68.04;99331.31;4954904;29;20027;-26
2024/01/18 00:19:33;;;;;;;42.13;19.63;;;;;;;4.20;68.25;99327.94;4954330;28;20062;-26
2024/01/18 00:21:59;;;;;;;35.30;18.67;;;;;;;4.18;68.87;99328.09;4955133;29;20054;-26
2024/01/18 00:24:24;;;;;;;33.92;18.15;;;;;;;4.48;67.91;99329.09;4954687;29;20459;-26
2024/01/18 00:26:49;;;;;;;37.67;18.92;;;;;;;4.45;67.88;99323.34;4954628;29;20027;-26
2024/01/18 00:29:15;;;;;;;38.88;18.77;;;;;;;4.45;67.05;99315.44;4954571;29;20456;-26
2024/01/18 00:31:40;;;;;;;37.72;19.27;;;;;;;4.38;68.38;99314.50;4954248;29;20091;-26
2024/01/18 00:34:05;;;;;;;34.58;18.42;;;;;;;4.46;68.14;99320.53;4954875;29;20035;-26
2024/01/18 00:36:31;;;;;;;37.78;19.30;;;;;;;4.45;67.98;99318.06;4955057;29;20031;-26
2024/01/18 00:38:56;;;;;;;35.97;19.55;;;;;;;4.39;68.18;99318.78;4954798;29;20705;-26
2024/01/18 00:41:21;;;;;;;41.08;20.83;;;;;;;4.43;68.24;99315.59;4954698;29;20078;-26
2024/01/18 00:43:48;;;;;;;39.15;20.65;;;;;;;4.50;68.02;99307.84;4954080;29;20015;-26
2024/01/18 00:46:13;;;;;;;47.58;19.83;;;;;;;4.46;68.21;99310.00;4954003;29;20568;-26
2024/01/18 00:48:38;;;;;;;41.78;20.52;;;;;;;4.39;68.71;99295.88;4954282;29;20106;-26
2024/01/18 00:51:04;;;;;;;37.45;19.60;;;;;;;4.50;68.24;99300.75;4954036;29;20114;-26
2024/01/18 00:53:29;;;;;;;39.45;20.38;;;;;;;4.49;68.15;99300.91;4953707;29;20030;-26
2024/01/18 00:55:55;;;;;;;42.28;21.73;;;;;;;4.53;68.27;99280.31;4953789;29;20051;-26
2024/01/18 00:58:20;;;;;;;41.95;21.10;;;;;;;4.49;68.60;99290.38;4954269;29;20035;-26
2024/01/18 01:00:47;;;;;;;40.10;21.23;;;;;;;4.56;67.99;99291.31;4954068;29;20182;-26
2024/01/18 01:03:12;;;;;;;36.63;20.10;;;;;;;4.43;68.34;99288.44;4954035;29;20027;-26
2024/01/18 01:05:38;;;;;;;36.78;20.27;;;;;;;4.48;68.24;99284.28;4954564;29;20038;-26
2024/01/18 01:08:04;;;;;;;41.25;22.90;;;;;;;4.41;68.45;99272.00;4954271;29;20019;-26
2024/01/18 01:10:29;;;;;;;37.20;18.92;;;;;;;4.45;67.88;99273.28;4954137;29;20029;-26
2024/01/18 01:12:54;;;;;;;34.67;18.20;;;;;;;4.64;66.96;99267.53;4954097;29;20031;-26
2024/01/18 01:15:20;;;;;;;32.33;17.77;;;;;;;4.82;66.00;99269.88;4954687;29;20163;-27
2024/01/18 01:17:45;;;;;;;31.30;18.05;;;;;;;4.74;66.81;99266.47;4954555;29;20389;-26
2024/01/18 01:20:11;;;;;;;32.60;17.65;;;;;;;4.43;67.25;99227.84;4954547;29;20034;-26
2024/01/18 01:22:36;;;;;;;34.08;17.73;;;;;;;4.83;66.64;99260.97;4954423;29;20023;-26
2024/01/18 01:25:02;;;;;;;35.78;17.92;;;;;;;4.75;67.10;99247.84;4954460;29;20065;-26
2024/01/18 01:27:27;;;;;;;34.90;17.83;;;;;;;4.72;67.70;99244.75;4954364;29;20027;-26
2024/01/18 01:29:52;;;;;;;34.78;18.75;;;;;;;4.88;67.28;99247.25;4954036;29;20023;-26
2024/01/18 01:32:18;;;;;;;50.58;19.63;;;;;;;4.65;68.16;99247.28;4954054;28;20039;-26
2024/01/18 01:34:43;;;;;;;40.63;19.05;;;;;;;4.67;68.29;99251.38;4954564;29;20030;-26
2024/01/18 01:37:08;;;;;;;36.45;18.25;;;;;;;4.54;68.84;99243.25;4954065;29;20019;-26
2024/01/18 01:39:34;;;;;;;38.05;16.67;;;;;;;4.68;68.18;99239.84;4953817;29;20023;-26
2024/01/18 01:41:59;;;;;;;35.35;18.08;;;;;;;4.69;69.17;99248.56;4953830;29;20062;-26
2024/01/18 01:44:25;;;;;;;38.05;16.77;;;;;;;4.68;68.85;99253.03;4953931;29;20023;-26
2024/01/18 01:46:50;;;;;;;41.05;18.13;;;;;;;4.78;68.85;99246.66;4954268;29;20035;-26
2024/01/18 01:49:15;;;;;;;34.85;17.27;;;;;;;4.83;68.55;99253.03;4954008;29;20111;-26
2024/01/18 01:51:48;;;;;;;32.17;16.95;;;;;;;4.80;69.18;99253.41;4954289;29;20074;-25
2024/01/18 01:54:14;;;;;;;36.58;19.05;;;;;;;4.76;69.08;99235.47;4954215;29;20090;-26
2024/01/18 01:56:41;;;;;;;41.10;18.73;;;;;;;4.77;69.29;99245.03;4954122;29;20035;-26
2024/01/18 01:59:10;;;;;;;38.47;19.42;;;;;;;4.71;69.60;99241.31;4953861;29;20031;-26
2024/01/18 02:01:37;;;;;;;39.87;18.33;;;;;;;4.68;69.42;99233.75;4953856;29;20374;-26
2024/01/18 02:04:03;;;;;;;35.78;18.52;;;;;;;4.85;69.06;99227.31;4953850;29;20082;-26
2024/01/18 02:06:30;;;;;;;32.75;17.45;;;;;;;4.70;69.72;99213.28;4954093;29;20035;-24
2024/01/18 02:08:56;;;;;;;29.17;17.00;;;;;;;4.96;69.20;99212.09;4953906;29;20027;-26
2024/01/18 02:11:21;;;;;;;33.53;17.27;;;;;;;4.66;69.30;99206.75;4953898;29;20114;-26
2024/01/18 02:13:48;;;;;;;35.30;18.60;;;;;;;4.63;70.40;99192.13;4953498;29;20110;-26
2024/01/18 02:16:14;;;;;;;32.42;17.13;;;;;;;4.76;69.34;99203.84;4953539;29;20034;-26
2024/01/18 02:18:39;;;;;;;33.25;17.75;;;;;;;4.54;70.54;99208.19;4953574;29;20027;-26
2024/01/18 02:21:07;;;;;;;30.50;16.27;;;;;;;4.38;70.70;99204.69;4953772;29;20054;-26
2024/01/18 02:23:36;;;;;;;31.42;17.77;;;;;;;4.44;71.22;99197.88;4953280;29;20373;-26
2024/01/18 02:26:01;;;;;;;33.38;17.90;;;;;;;4.64;70.48;99193.72;4953512;29;20050;-24
2024/01/18 02:28:26;;;;;;;30.52;17.02;;;;;;;4.62;70.16;99200.19;4953268;29;20480;-25
2024/01/18 02:30:52;;;;;;;32.42;17.30;;;;;;;4.55;70.86;99202.75;4952990;29;20083;-27
2024/01/18 02:33:17;;;;;;;30.58;17.33;;;;;;;4.64;71.09;99199.00;4953155;29;20043;-26
2024/01/18 02:35:43;;;;;;;32.70;17.13;;;;;;;4.52;70.91;99183.81;4953172;29;20034;-26
2024/01/18 02:38:08;;;;;;;32.35;17.55;;;;;;;4.72;70.68;99194.66;4953247;29;20031;-26
2024/01/18 02:40:33;;;;;;;31.58;16.92;;;;;;;4.55;71.67;99191.34;4953021;29;20090;-26
2024/01/18 02:42:59;;;;;;;31.27;17.90;;;;;;;4.80;70.56;99194.63;4953590;28;20174;-26
2024/01/18 02:45:24;;;;;;;30.98;16.80;;;;;;;4.60;70.80;99181.91;4957400;29;20031;-26
2024/01/18 02:47:50;;;;;;;31.10;17.10;;;;;;;4.58;71.07;99197.09;4957160;29;20039;-26
2024/01/18 02:50:15;;;;;;;31.75;17.88;;;;;;;4.56;70.69;99175.38;4957177;29;20031;-26
2024/01/18 02:52:41;;;;;;;31.60;17.08;;;;;;;4.74;69.98;99185.59;4957023;29;20035;-26
2024/01/18 02:55:07;;;;;;;30.15;17.63;;;;;;;4.97;69.14;99193.44;4957261;29;20062;-26
2024/01/18 02:57:32;;;;;;;36.53;18.88;;;;;;;4.84;69.56;99190.63;4956937;29;20035;-26
2024/01/18 02:59:58;;;;;;;33.00;17.98;;;;;;;4.80;70.09;99184.88;4957370;29;20027;-26
2024/01/18 03:02:23;;;;;;;31.10;17.23;;;;;;;4.86;69.65;99180.69;4956630;29;20365;-26
2024/01/18 03:04:49;;;;;;;30.27;16.20;;;;;;;4.77;69.25;99179.94;4957248;29;20023;-26
2024/01/18 03:07:14;;;;;;;28.33;16.30;;;;;;;4.46;69.90;99177.44;4957016;29;20504;-26
2024/01/18 03:09:39;;;;;;;28.88;16.17;;;;;;;4.53;69.86;99175.72;4956878;29;20467;-26
2024/01/18 03:12:05;;;;;;;28.52;16.85;;;;;;;4.92;69.02;99179.16;4956865;29;20035;-26
2024/01/18 03:14:31;;;;;;;29.20;15.70;;;;;;;4.82;69.42;99168.88;4956412;29;20479;-25
2024/01/18 03:16:56;;;;;;;28.45;15.25;;;;;;;4.70;69.43;99152.66;4956664;29;20055;-27
2024/01/18 03:19:22;;;;;;;27.90;15.82;;;;;;;4.80;69.29;99161.16;4956477;29;20038;-26
2024/01/18 03:21:47;;;;;;;29.85;15.68;;;;;;;4.87;68.73;99153.31;4956638;29;20111;-26
2024/01/18 03:24:13;;;;;;;27.85;14.98;;;;;;;4.69;68.99;99151.84;4956473;29;20436;-25
2024/01/18 03:26:38;;;;;;;25.33;13.70;;;;;;;4.62;69.30;99144.84;4956491;29;20039;-26
2024/01/18 03:29:05;;;;;;;27.63;15.10;;;;;;;4.60;69.96;99142.38;4956549;29;20035;-26
2024/01/18 03:31:30;;;;;;;25.73;13.98;;;;;;;4.61;69.95;99133.50;4956563;28;20673;-26
2024/01/18 03:33:56;;;;;;;24.23;14.20;;;;;;;4.63;69.59;99146.50;4956525;29;20039;-38
2024/01/18 03:36:21;;;;;;;23.30;13.18;;;;;;;4.69;68.93;99146.59;4956341;29;20191;-39
2024/01/18 03:38:46;;;;;;;23.95;12.95;;;;;;;4.86;68.60;99138.53;4956234;29;20150;-40
2024/01/18 03:41:14;;;;;;;24.50;13.75;;;;;;;4.82;68.49;99145.16;4955986;29;20353;-36
2024/01/18 03:43:40;;;;;;;24.35;13.85;;;;;;;4.87;68.66;99134.88;4955916;29;20035;-40
2024/01/18 03:46:05;;;;;;;29.98;16.85;;;;;;;5.07;68.54;99130.69;4956476;29;20035;-40
2024/01/18 03:48:30;;;;;;;32.50;18.08;;;;;;;5.28;68.70;99145.78;4955974;29;20114;-40
2024/01/18 03:50:56;;;;;;;33.92;18.05;;;;;;;5.02;69.38;99140.97;4956074;29;20023;-39
2024/01/18 03:53:21;;;;;;;28.27;16.52;;;;;;;4.87;70.55;99137.50;4956180;29;20110;-38
2024/01/18 03:55:46;;;;;;;31.23;16.95;;;;;;;4.70;70.99;99148.22;4954475;28;20031;-39
2024/01/18 03:58:12;;;;;;;32.55;17.35;;;;;;;4.76;70.82;99159.03;4955325;29;20110;-39
2024/01/18 04:00:39;;;;;;;29.65;16.95;;;;;;;4.72;71.42;99152.50;4954935;29;20492;-40
2024/01/18 04:03:05;;;;;;;29.75;16.38;;;;;;;4.85;71.41;99148.22;4955527;29;20030;-39
2024/01/18 04:05:30;;;;;;;30.75;16.45;;;;;;;4.85;71.14;99142.94;4955778;29;20046;-38
2024/01/18 04:07:56;;;;;;;31.15;16.15;;;;;;;4.88;70.75;99145.25;4955093;29;20027;-40
2024/01/18 04:10:21;;;;;;;29.58;15.77;;;;;;;4.54;70.71;99144.94;4955055;29;20081;-38
2024/01/18 04:12:47;;;;;;;31.13;16.40;;;;;;;4.49;71.07;99143.66;4955093;29;20113;-39
2024/01/18 04:15:12;;;;;;;26.13;15.27;;;;;;;4.46;70.35;99145.81;4955138;29;20383;-39
2024/01/18 04:17:37;;;;;;;33.38;16.67;;;;;;;4.61;71.18;99135.31;4955337;29;20443;-39
2024/01/18 04:20:05;;;;;;;28.65;16.50;;;;;;;4.44;72.29;99142.56;4950630;29;20031;-39
2024/01/18 04:22:32;;;;;;;31.63;17.23;;;;;;;4.69;72.76;99143.94;4951321;29;20157;-40
2024/01/18 04:24:57;;;;;;;38.13;20.38;;;;;;;4.91;72.75;99144.03;4955336;29;20051;-39
2024/01/18 04:27:23;;;;;;;34.78;19.48;;;;;;;4.84;73.31;99151.88;4955541;29;20516;-40
2024/01/18 04:29:48;;;;;;;42.10;23.67;;;;;;;4.70;75.75;99161.41;4955049;29;20340;-40
2024/01/18 04:32:13;;;;;;;43.67;22.55;;;;;;;4.54;74.87;99168.66;4949315;29;20039;-40
2024/01/18 04:34:39;;;;;;;45.55;23.13;;;;;;;4.37;75.96;99162.69;4943637;29;20028;-39
2024/01/18 04:37:04;;;;;;;43.47;23.77;;;;;;;4.56;75.50;99166.66;4936087;29;20115;-39
2024/01/18 04:39:30;;;;;;;45.63;23.33;;;;;;;4.53;75.93;99169.63;4936212;29;20110;-40
2024/01/18 04:41:55;;;;;;;41.70;22.02;;;;;;;4.46;76.68;99177.44;4953578;29;20163;-39
2024/01/18 04:44:21;;;;;;;41.17;22.10;;;;;;;4.49;77.01;99153.34;4946759;29;20110;-41
2024/01/18 04:46:47;;;;;;;42.95;23.75;;;;;;;4.58;77.04;99154.91;4945752;29;20028;-39
2024/01/18 04:49:12;;;;;;;38.70;22.73;;;;;;;4.50;77.17;99139.19;4955456;29;20069;-41
2024/01/18 04:51:39;;;;;;;45.03;24.90;;;;;;;4.69;77.10;99143.13;4946311;29;20034;-40
2024/01/18 04:54:04;;;;;;;38.80;22.95;;;;;;;4.51;77.25;99127.63;4949044;29;20023;-39
2024/01/18 04:56:30;;;;;;;46.03;22.13;;;;;;;4.33;76.82;99135.06;4942387;29;20031;-40
2024/01/18 04:58:56;;;;;;;42.38;22.77;;;;;;;4.36;76.74;99145.25;4947852;29;20023;-39
2024/01/18 05:01:21;;;;;;;40.15;22.25;;;;;;;4.46;76.56;99149.28;4954801;29;20023;-39
2024/01/18 05:03:47;;;;;;;40.03;22.25;;;;;;;4.17;77.60;99142.13;4955297;29;20027;-40
2024/01/18 05:06:12;;;;;;;40.97;23.15;;;;;;;4.27;77.19;99134.78;4954844;28;20106;-41
2024/01/18 05:08:38;;;;;;;39.85;21.63;;;;;;;4.35;76.47;99130.44;4954933;29;20033;-41
2024/01/18 05:11:03;;;;;;;42.60;22.52;;;;;;;4.13;77.66;99129.47;4953871;29;20023;-40
2024/01/18 05:13:28;;;;;;;47.42;24.65;;;;;;;4.33;77.48;99124.53;4953511;29;20065;-39
2024/01/18 05:15:55;;;;;;;43.65;24.60;;;;;;;4.30;77.04;99121.25;4953623;29;20051;-38
2024/01/18 05:18:20;;;;;;;45.17;24.00;;;;;;;4.21;77.60;99126.78;4953669;29;20019;-38
2024/01/18 05:20:46;;;;;;;44.35;23.13;;;;;;;4.23;77.68;99116.88;4936547;29;20090;-37
2024/01/18 05:23:11;;;;;;;47.00;24.13;;;;;;;4.33;77.68;99124.53;4936311;29;20070;-41
2024/01/18 05:25:37;;;;;;;39.65;22.40;;;;;;;4.23;77.36;99122.97;4954159;29;20500;-41
2024/01/18 05:28:02;;;;;;;38.95;22.08;;;;;;;4.26;76.64;99117.31;4955134;29;20153;-39
2024/01/18 05:30:28;;;;;;;39.13;21.52;;;;;;;4.53;80.10;99122.19;4954655;29;20035;-40
2024/01/18 05:32:54;;;;;;;37.00;20.90;;;;;;;5.18;78.77;99120.66;4954628;29;20050;-40
2024/01/18 05:35:19;;;;;;;36.42;21.30;;;;;;;4.98;73.66;99120.41;4954249;29;20102;-36
2024/01/18 05:37:45;;;;;;;35.83;21.33;;;;;;;4.78;73.53;99112.22;4954532;29;20019;-38
2024/01/18 05:40:11;;;;;;;37.55;21.83;;;;;;;4.52;74.26;99118.75;4953842;29;20106;-39
2024/01/18 05:42:36;;;;;;;37.10;20.95;;;;;;;4.36;75.49;99125.00;4954031;29;20023;-38
2024/01/18 05:45:02;;;;;;;40.67;21.83;;;;;;;4.41;78.93;99112.09;4953873;29;20045;-41
2024/01/18 05:47:27;;;;;;;43.90;22.92;;;;;;;4.93;76.40;99110.44;4953510;29;20102;-42
2024/01/18 05:49:52;;;;;;;42.78;23.00;;;;;;;4.85;74.56;99115.78;4953567;29;20027;-40
2024/01/18 05:52:18;;;;;;;45.58;23.95;;;;;;;5.03;74.01;99126.78;4952900;29;20031;-40
2024/01/18 05:54:43;;;;;;;46.95;23.05;;;;;;;4.87;74.11;99121.69;4952708;29;20015;-40
2024/01/18 05:57:09;;;;;;;43.17;23.88;;;;;;;4.94;74.61;99114.69;4952689;29;20035;-40
2024/01/18 05:59:34;;;;;;;43.00;23.10;;;;;;;4.75;74.98;99121.31;4951932;29;20023;-40
2024/01/18 06:02:00;;;;;;;40.85;21.45;;;;;;;4.65;74.83;99126.84;4952503;29;20027;-40
2024/01/18 06:04:25;;;;;;;41.55;22.48;;;;;;;4.70;74.61;99111.34;4952666;29;20460;-41
2024/01/18 06:06:52;;;;;;;39.40;21.08;;;;;;;5.71;88.72;99134.47;4952605;29;20031;-41
2024/01/18 06:09:18;;;;;;;41.65;21.50;;;;;;;6.61;78.54;99127.00;4952317;29;20035;-40
2024/01/18 06:11:48;;;;;;;36.90;19.10;;;;;;;7.76;82.86;99141.41;4952486;29;20026;-39
2024/01/18 06:14:13;;;;;;;31.45;18.15;;;;;;;9.06;77.00;99133.06;4952634;29;20019;-40
2024/01/18 06:16:39;;;;;;;33.78;19.25;;;;;;;8.91;65.20;99137.78;4953536;29;20034;-40
2024/01/18 06:19:05;;;;;;;31.85;18.98;;;;;;;8.64;67.66;99137.03;4953108;28;20105;-36
2024/01/18 06:21:30;;;;;;;33.78;17.98;;;;;;;8.57;65.52;99132.53;4953695;29;20035;-37
2024/01/18 06:23:56;;;;;;;33.70;17.55;;;;;;;9.50;64.00;99125.34;4953718;29;20070;-37
2024/01/18 06:26:21;;;;;;;33.20;18.00;;;;;;;8.92;58.32;99113.72;4953853;29;20042;-40
2024/01/18 06:28:46;;;;;;;29.25;17.42;;;;;;;7.97;60.80;99139.59;4953754;29;20031;-41
2024/01/18 06:31:13;;;;;;;28.95;16.52;;;;;;;7.29;63.45;99119.25;4953282;29;20114;-39
2024/01/18 06:33:39;;;;;;;27.42;15.10;;;;;;;7.91;61.95;99143.06;4953499;29;20027;-39
2024/01/18 06:36:04;;;;;;;25.13;14.45;;;;;;;7.20;62.84;99142.41;4953534;29;20384;-39
2024/01/18 06:38:29;;;;;;;26.58;15.15;;;;;;;6.96;63.81;99137.59;4953732;29;20110;-38
2024/01/18 06:40:58;;;;;;;25.92;14.60;;;;;;;7.14;63.33;99145.00;4953227;29;20026;-44
2024/01/18 06:43:25;;;;;;;23.95;13.40;;;;;;;6.50;65.51;99138.91;4953322;29;20034;-40
2024/01/18 06:45:54;;;;;;;25.25;13.70;;;;;;;6.38;65.81;99133.34;4953773;29;20109;-39
2024/01/18 06:48:22;;;;;;;27.40;14.07;;;;;;;6.85;64.70;99134.50;4953497;29;20124;-38
2024/01/18 06:50:48;;;;;;;26.23;13.95;;;;;;;7.19;63.57;99124.88;4953670;29;20062;-38
2024/01/18 06:53:13;;;;;;;24.45;13.93;;;;;;;7.54;62.36;99135.44;4953680;29;20145;-41
2024/01/18 06:55:38;;;;;;;27.85;15.57;;;;;;;7.66;61.29;99148.09;4953862;29;20023;-40
2024/01/18 06:58:04;;;;;;;31.65;16.00;;;;;;;7.41;61.71;99135.38;4953539;29;20019;-41
2024/01/18 07:00:30;;;;;;;27.77;14.75;;;;;;;7.59;61.89;99129.53;4953581;29;20034;-40
2024/01/18 07:02:55;;;;;;;26.48;13.70;;;;;;;7.75;61.16;99128.34;4953380;29;20031;-40
2024/01/18 07:05:21;;;;;;;25.65;14.15;;;;;;;7.83;60.40;99123.69;4953483;29;20022;-39
2024/01/18 07:07:46;;;;;;;30.27;14.48;;;;;;;7.36;61.83;99125.38;4936297;29;20388;-38
2024/01/18 07:10:12;;;;;;;93.70;38.55;;;;;;;7.51;63.41;99124.41;4953544;29;20031;-45
2024/01/18 07:12:38;;;;;;;33.53;18.10;;;;;;;7.36;62.94;99117.44;4953362;29;20027;-38
2024/01/18 07:15:03;;;;;;;26.50;13.60;;;;;;;7.52;61.91;99116.28;4953437;29;20028;-41
2024/01/18 07:17:29;;;;;;;24.77;13.68;;;;;;;7.85;60.65;99120.03;4952759;29;20514;-43
2024/01/18 07:19:58;;;;;;;24.95;14.32;;;;;;;8.02;59.50;99131.88;4952461;29;20034;-42
2024/01/18 07:22:25;;;;;;;30.35;13.95;;;;;;;8.16;59.03;99132.72;4951545;29;20539;-40
2024/01/18 07:24:51;;;;;;;26.05;13.70;;;;;;;8.11;59.19;99135.13;4952587;29;20078;-40
2024/01/18 07:27:17;;;;;;;26.13;14.63;;;;;;;7.51;61.29;99125.22;4951503;29;20046;-40
2024/01/18 07:29:42;;;;;;;34.97;15.82;;;;;;;7.70;60.90;99136.91;4953900;28;20407;-39
2024/01/18 07:32:08;;;;;;;28.40;16.00;;;;;;;7.81;60.71;99123.06;4955669;29;20055;-41
2024/01/18 07:34:34;;;;;;;39.80;19.35;;;;;;;7.50;61.82;99120.13;4955998;29;20106;-42
2024/01/18 07:36:59;;;;;;;40.67;17.27;;;;;;;7.60;61.37;99125.88;4956339;29;20392;-40
2024/01/18 07:39:25;;;;;;;28.98;17.02;;;;;;;7.84;60.69;99121.84;4956240;29;20727;-40
2024/01/18 07:41:50;;;;;;;30.38;17.10;;;;;;;8.04;59.77;99121.91;4955863;29;20570;-39
2024/01/18 07:44:15;;;;;;;32.33;16.67;;;;;;;8.31;59.06;99106.81;4956070;29;20494;-40
2024/01/18 07:46:41;;;;;;;29.08;17.80;;;;;;;8.41;59.02;99098.44;4956214;29;20090;-41
2024/01/18 07:49:06;;;;;;;25.80;14.55;;;;;;;8.45;58.49;99107.66;4955840;29;20023;-42
2024/01/18 07:51:31;;;;;;;31.60;17.75;;;;;;;8.10;58.61;99107.81;4955777;29;20027;-39
2024/01/18 07:53:57;;;;;;;36.05;17.88;;;;;;;8.32;58.92;99112.94;4955773;29;20054;-42
2024/01/18 07:56:22;;;;;;;27.50;15.32;;;;;;;8.14;59.36;99106.41;4956004;29;20086;-40
2024/01/18 07:58:48;;;;;;;33.50;15.93;;;;;;;8.31;58.89;99111.31;4955813;29;20404;-40
2024/01/18 08:01:17;;;;;;;31.75;16.15;;;;;;;7.98;59.26;99104.16;4955728;29;20027;-41
2024/01/18 08:03:42;;;;;;;35.42;18.13;;;;;;;7.99;60.04;99114.53;4955159;29;20027;-41
2024/01/18 08:06:08;;;;;;;31.98;17.75;;;;;;;8.26;59.41;99113.75;4955886;29;20066;-40
2024/01/18 08:08:33;;;;;;;31.17;18.42;;;;;;;8.41;58.95;99095.81;4955698;29;20065;-41
2024/01/18 08:10:59;;;;;;;29.92;17.10;;;;;;;8.10;60.13;99094.56;4955651;29;20031;-40
2024/01/18 08:13:24;;;;;;;35.95;17.15;;;;;;;8.26;59.87;99095.19;4955521;29;20388;-40
2024/01/18 08:15:50;;;;;;;31.45;17.73;;;;;;;8.09;60.54;99092.13;4955618;29;20027;-41
2024/01/18 08:18:17;;;;;;;27.98;16.42;;;;;;;7.35;62.89;99075.28;4955506;29;20039;-42
2024/01/18 08:20:43;;;;;;;31.67;17.50;;;;;;;6.79;65.51;99087.66;4955208;29;20031;-42
2024/01/18 08:23:08;;;;;;;31.23;16.80;;;;;;;7.07;65.70;99075.38;4955608;29;20034;-41
2024/01/18 08:25:33;;;;;;;25.70;15.57;;;;;;;6.77;66.89;99068.50;4955216;29;20054;-42
2024/01/18 08:27:59;;;;;;;31.88;16.20;;;;;;;6.39;68.46;99063.59;4955414;29;20036;-41
2024/01/18 08:30:25;;;;;;;26.80;15.20;;;;;;;6.46;68.28;99055.72;4955278;29;20031;-41
2024/01/18 08:32:50;;;;;;;33.55;16.02;;;;;;;6.64;67.56;99042.00;4954969;29;20065;-41
2024/01/18 08:35:16;;;;;;;31.20;15.43;;;;;;;7.09;65.52;99033.66;4954999;29;20031;-42
2024/01/18 08:37:41;;;;;;;31.90;16.15;;;;;;;6.89;66.17;99028.28;4955072;29;20042;-40
2024/01/18 08:40:08;;;;;;;27.90;15.75;;;;;;;6.92;65.86;99034.00;4954994;29;20452;-42
2024/01/18 08:42:34;;;;;;;27.25;15.32;;;;;;;7.09;64.76;99042.41;4954131;28;20495;-42
2024/01/18 08:45:00;;;;;;;25.77;15.32;;;;;;;6.69;67.24;99033.50;4954915;29;20036;-39
2024/01/18 08:47:26;;;;;;;26.80;15.85;;;;;;;7.17;66.38;99013.13;4954738;29;20494;-39
2024/01/18 08:49:52;;;;;;;26.05;14.93;;;;;;;7.08;66.97;99005.56;4954772;29;20027;-40
2024/01/18 08:52:17;;;;;;;26.38;16.05;;;;;;;7.26;65.94;98999.72;4954738;29;20042;-41
2024/01/18 08:54:43;;;;;;;30.45;15.68;;;;;;;7.27;65.19;98980.19;4954534;29;20023;-39
2024/01/18 08:57:08;;;;;;;29.08;17.85;;;;;;;7.09;65.94;98975.47;4954569;29;20054;-41
2024/01/18 08:59:34;;;;;;;31.88;16.65;;;;;;;7.21;65.29;98960.63;4954838;29;20432;-39
2024/01/18 09:01:59;;;;;;;34.05;18.48;;;;;;;7.29;65.08;98951.69;4954730;29;20062;-42
2024/01/18 09:04:25;;;;;;;32.53;17.17;;;;;;;6.98;66.17;98927.38;4954222;29;20098;-39
2024/01/18 09:06:51;;;;;;;30.58;16.58;;;;;;;6.96;66.99;98907.47;4954522;29;20059;-41
2024/01/18 09:09:16;;;;;;;31.73;17.02;;;;;;;6.99;66.04;98901.78;4954703;29;20094;-36
2024/01/18 09:11:42;;;;;;;31.98;17.75;;;;;;;6.83;67.20;98892.38;4954606;29;20027;-38
2024/01/18 09:14:07;;;;;;;30.60;17.48;;;;;;;7.12;66.52;98899.16;4954538;29;20027;-41
2024/01/18 09:16:33;;;;;;;36.00;17.92;;;;;;;7.36;65.62;98903.03;4954278;29;20368;-39
2024/01/18 09:18:59;;;;;;;31.50;17.38;;;;;;;6.50;68.18;98914.22;4954311;29;20155;-37
2024/01/18 09:21:25;;;;;;;33.08;18.20;;;;;;;6.62;68.59;98919.75;4954442;29;20423;-42
2024/01/18 09:23:50;;;;;;;42.15;19.33;;;;;;;6.64;67.76;98909.78;4954236;29;20534;-42
2024/01/18 09:26:16;;;;;;;33.58;18.23;;;;;;;6.52;69.71;98901.63;4954350;29;20035;-39
2024/01/18 09:28:42;;;;;;;32.88;18.65;;;;;;;6.61;69.43;98903.09;4953948;29;20136;-45
2024/01/18 09:31:07;;;;;;;32.17;17.73;;;;;;;7.44;65.45;98908.13;4953910;29;20130;-40
2024/01/18 09:33:33;;;;;;;33.83;18.35;;;;;;;7.04;66.72;98915.19;4954083;29;20496;-40
2024/01/18 09:35:58;;;;;;;39.13;20.60;;;;;;;6.82;67.65;98898.69;4954000;29;20031;-36
2024/01/18 09:38:26;;;;;;;40.33;19.63;;;;;;;6.59;69.18;98901.66;4953873;29;20023;-40
2024/01/18 09:41:00;;;;;;;34.35;19.65;;;;;;;6.81;69.08;98899.69;4953620;29;20558;-39
2024/01/18 09:43:26;;;;;;;30.42;16.90;;;;;;;7.03;67.53;98901.16;4953856;29;20033;-40
2024/01/18 09:45:52;;;;;;;29.70;16.63;;;;;;;7.00;67.28;98900.75;4954083;29;20106;-41
2024/01/18 09:48:18;;;;;;;33.47;17.25;;;;;;;6.95;67.56;98898.72;4954074;29;20022;-40
2024/01/18 09:50:44;;;;;;;36.78;18.88;;;;;;;7.03;67.57;98895.88;4953809;29;20480;-42
2024/01/18 09:53:13;;;;;;;35.75;18.52;;;;;;;6.95;68.11;98903.16;4953610;28;20118;-41
2024/01/18 09:55:38;;;;;;;35.83;17.48;;;;;;;7.51;66.51;98909.97;4953469;29;20482;-39
2024/01/18 09:58:11;;;;;;;36.45;17.95;;;;;;;7.61;65.41;98897.13;4953497;29;20057;-40
2024/01/18 10:00:41;;;;;;;32.40;17.42;;;;;;;7.39;66.87;98892.03;4953478;29;20069;-44
2024/01/18 10:03:07;;;;;;;29.17;18.33;;;;;;;7.31;67.01;98884.31;4953626;29;20035;-39
2024/01/18 10:05:32;;;;;;;30.77;18.35;;;;;;;7.14;67.45;98875.09;4953558;29;20027;-42
2024/01/18 10:07:58;;;;;;;41.42;18.25;;;;;;;7.52;67.49;98882.44;4953565;29;20031;-42
2024/01/18 10:10:23;;;;;;;30.85;17.23;;;;;;;7.99;64.96;98891.16;4953484;29;20027;-40
2024/01/18 10:12:49;;;;;;;33.97;18.75;;;;;;;7.80;65.07;98871.63;4953350;29;20023;-40
2024/01/18 10:15:32;;;;;;;37.60;19.13;;;;;;;7.61;65.95;98873.28;4953075;29;20443;-40
2024/01/18 10:17:57;;;;;;;39.10;19.13;;;;;;;7.46;66.44;98862.09;4953541;29;20019;-42
2024/01/18 10:20:23;;;;;;;40.22;20.15;;;;;;;7.56;66.49;98859.88;4953040;29;20110;-37
2024/01/18 10:22:49;;;;;;;45.33;23.35;;;;;;;8.00;64.80;98855.72;4953316;29;20118;-42
2024/01/18 10:25:16;;;;;;;47.28;23.40;;;;;;;7.72;65.66;98856.78;4952954;29;20023;-40
2024/01/18 10:27:42;;;;;;;45.35;24.40;;;;;;;7.53;66.46;98852.31;4952968;29;20027;-40
2024/01/18 10:30:11;;;;;;;43.35;23.60;;;;;;;7.60;66.79;98846.00;4953460;29;20042;-40
2024/01/18 10:32:39;;;;;;;40.23;22.70;;;;;;;7.74;66.33;98859.22;4953192;29;20047;-39
2024/01/18 10:35:05;;;;;;;40.78;21.83;;;;;;;8.06;65.02;98849.56;4953342;29;20326;-42
2024/01/18 10:37:31;;;;;;;52.45;24.65;;;;;;;7.94;64.97;98841.44;4952995;29;20039;-38
2024/01/18 10:39:57;;;;;;;40.20;22.27;;;;;;;7.86;65.22;98832.91;4952818;29;20038;-39
2024/01/18 10:42:23;;;;;;;46.28;24.92;;;;;;;7.97;65.01;98845.50;4952670;29;20034;-38
2024/01/18 10:44:50;;;;;;;44.85;24.50;;;;;;;7.83;65.99;98834.16;4952770;29;20023;-38
2024/01/18 10:47:16;;;;;;;45.33;24.23;;;;;;;8.58;63.42;98821.22;4953039;29;20035;-42
2024/01/18 10:49:44;;;;;;;46.58;23.50;;;;;;;8.38;63.60;98801.94;4953052;29;20170;-41
2024/01/18 10:52:11;;;;;;;40.42;22.77;;;;;;;8.07;63.89;98784.13;4953003;29;20031;-40
2024/01/18 10:54:37;;;;;;;43.45;23.08;;;;;;;8.07;64.53;98795.53;4952960;29;20024;-40
2024/01/18 10:57:03;;;;;;;45.55;23.30;;;;;;;8.20;64.85;98773.47;4952816;29;20086;-42
2024/01/18 10:59:30;;;;;;;41.58;24.20;;;;;;;8.82;63.41;98787.00;4953003;29;20023;-42
2024/01/18 11:01:59;;;;;;;43.70;22.60;;;;;;;9.17;61.25;98781.22;4953062;29;20031;-42
2024/01/18 11:04:33;;;;;;;47.38;23.25;;;;;;;8.90;62.29;98775.31;4953814;28;20452;-38
2024/01/18 11:06:59;;;;;;;37.35;21.67;;;;;;;8.67;62.76;98760.78;4956687;29;20397;-39
2024/01/18 11:09:32;;;;;;;46.63;24.35;;;;;;;8.75;62.48;98746.44;4956517;29;20527;-39
2024/01/18 11:11:58;;;;;;;48.95;24.40;;;;;;;9.63;61.33;98768.50;4956738;29;20102;-42
2024/01/18 11:14:27;;;;;;;44.67;22.85;;;;;;;9.86;59.34;98760.72;4956613;29;20030;-38
2024/01/18 11:16:52;;;;;;;38.30;21.42;;;;;;;9.69;59.00;98757.84;4956505;29;20035;-39